createdAt,value
2023-04-14T00:01:04.881Z,96100.14
2023-04-14T00:03:33.084Z,96089.23
2023-04-14T00:06:01.484Z,96088.59
2023-04-14T00:08:29.544Z,96088.47
2023-04-14T00:10:57.473Z,96091.86
2023-04-14T00:13:25.487Z,96095.02
2023-04-14T00:15:53.465Z,96097.02
2023-04-14T00:18:21.542Z,96099.73
2023-04-14T00:20:49.825Z,96105.14
2023-04-14T00:23:18.724Z,96106.98
2023-04-14T00:25:47.204Z,96108.08
2023-04-14T00:28:15.271Z,96104.02
2023-04-14T00:30:46.541Z,96102.59
2023-04-14T00:33:14.806Z,96100.27
2023-04-14T00:35:42.937Z,96100.61
2023-04-14T00:38:11.162Z,96099.73
2023-04-14T00:40:39.290Z,96101.10
2023-04-14T00:43:07.420Z,96098.23
2023-04-14T00:45:45.219Z,96095.36
2023-04-14T00:48:14.525Z,96089.92
2023-04-14T00:50:42.707Z,96084.45
2023-04-14T00:53:12.006Z,96082.64
2023-04-14T00:55:41.524Z,96078.83
2023-04-14T00:58:09.723Z,96078.38
2023-04-14T01:00:38.083Z,96075.08
2023-04-14T01:03:06.824Z,96072.03
2023-04-14T01:05:35.356Z,96071.52
2023-04-14T01:08:03.984Z,96074.98
2023-04-14T01:10:39.185Z,96071.73
2023-04-14T01:13:24.556Z,96066.92
2023-04-14T01:15:54.196Z,96060.87
2023-04-14T01:18:42.919Z,96060.39
2023-04-14T01:21:13.648Z,96058.64
2023-04-14T01:23:46.547Z,96057.27
2023-04-14T01:26:32.115Z,96055.70
2023-04-14T01:29:06.428Z,96056.40
2023-04-14T01:31:38.190Z,96053.29
2023-04-14T01:34:25.095Z,96052.23
2023-04-14T01:36:56.807Z,96053.73
2023-04-14T01:39:28.303Z,96053.56
2023-04-14T01:41:58.544Z,96051.46
2023-04-14T01:44:27.886Z,96045.65
2023-04-14T01:47:04.715Z,96041.87
2023-04-14T01:49:34.078Z,96045.30
2023-04-14T01:52:04.348Z,96041.16
2023-04-14T01:54:33.779Z,96039.42
2023-04-14T01:57:03.378Z,96040.32
2023-04-14T01:59:33.796Z,96047.73
2023-04-14T02:02:04.015Z,96050.34
2023-04-14T02:04:35.481Z,96049.56
2023-04-14T02:07:05.910Z,96042.90
2023-04-14T02:09:34.391Z,96038.80
2023-04-14T02:12:03.791Z,96039.16
2023-04-14T02:14:32.694Z,96041.78
2023-04-14T02:17:03.005Z,96045.27
2023-04-14T02:19:31.395Z,96043.03
2023-04-14T02:22:00.610Z,96040.78
2023-04-14T02:24:28.877Z,96039.93
2023-04-14T02:27:09.033Z,96036.35
2023-04-14T02:29:40.798Z,96030.00
2023-04-14T02:32:12.051Z,96030.82
2023-04-14T02:34:48.002Z,96034.20
2023-04-14T02:37:18.647Z,96033.61
2023-04-14T02:39:53.874Z,96035.09
2023-04-14T02:42:26.630Z,96032.42
2023-04-14T02:44:58.929Z,96030.61
2023-04-14T02:47:32.540Z,96030.77
2023-04-14T02:50:02.649Z,96027.09
2023-04-14T02:52:32.176Z,96024.09
2023-04-14T02:55:01.828Z,96020.27
2023-04-14T02:57:30.592Z,96019.13
2023-04-14T02:59:59.264Z,96012.89
2023-04-14T03:02:27.842Z,96017.63
2023-04-14T03:05:06.981Z,96017.78
2023-04-14T03:07:54.301Z,96018.11
2023-04-14T03:10:24.828Z,96016.91
2023-04-14T03:12:53.520Z,96014.36
2023-04-14T03:15:22.835Z,96014.52
2023-04-14T03:17:56.084Z,96010.58
2023-04-14T03:20:25.937Z,96011.50
2023-04-14T03:23:01.286Z,96013.92
2023-04-14T03:25:32.118Z,96015.52
2023-04-14T03:28:02.758Z,96014.81
2023-04-14T03:30:33.691Z,96014.30
2023-04-14T03:33:07.731Z,96012.11
2023-04-14T03:35:37.927Z,96015.75
2023-04-14T03:38:09.392Z,96013.89
2023-04-14T03:40:41.380Z,96008.27
2023-04-14T03:43:12.492Z,96005.88
2023-04-14T03:45:41.692Z,95999.37
2023-04-14T03:48:13.252Z,95995.95
2023-04-14T03:50:46.857Z,95991.55
2023-04-14T03:53:18.130Z,95984.69
2023-04-14T03:55:48.935Z,95981.02
2023-04-14T03:58:17.633Z,95979.52
2023-04-14T04:00:47.468Z,95979.38
2023-04-14T04:03:16.521Z,95975.28
2023-04-14T04:05:45.550Z,95975.66
2023-04-14T04:08:14.645Z,95979.51
2023-04-14T04:10:44.159Z,95980.60
2023-04-14T04:13:16.588Z,95975.25
2023-04-14T04:15:46.139Z,95974.77
2023-04-14T04:18:16.065Z,95973.92
2023-04-14T04:20:46.520Z,95980.62
2023-04-14T04:23:17.675Z,95984.06
2023-04-14T04:25:46.234Z,95985.17
2023-04-14T04:28:29.340Z,95984.52
2023-04-14T04:30:59.327Z,95981.43
2023-04-14T04:33:30.018Z,95984.23
2023-04-14T04:35:58.691Z,95990.48
2023-04-14T04:38:31.569Z,95995.67
2023-04-14T04:41:00.057Z,95994.82
2023-04-14T04:43:29.058Z,95996.16
2023-04-14T04:46:16.807Z,95990.36
2023-04-14T04:48:46.797Z,95978.97
2023-04-14T04:51:15.190Z,95972.77
2023-04-14T04:53:43.269Z,95967.76
2023-04-14T04:56:11.545Z,95967.25
2023-04-14T04:58:39.828Z,95968.98
2023-04-14T05:01:09.397Z,95967.08
2023-04-14T05:03:38.048Z,95973.40
2023-04-14T05:06:06.209Z,95979.94
2023-04-14T05:08:34.185Z,95978.55
2023-04-14T05:11:02.278Z,95988.70
2023-04-14T05:13:30.438Z,96000.67
2023-04-14T05:16:08.813Z,96005.05
2023-04-14T05:18:37.647Z,96007.23
2023-04-14T05:21:07.049Z,96005.92
2023-04-14T05:23:36.562Z,96003.61
2023-04-14T05:26:26.939Z,96002.48
2023-04-14T05:28:53.283Z,96003.91
2023-04-14T05:31:21.489Z,95996.03
2023-04-14T05:33:49.549Z,95993.89
2023-04-14T05:36:17.764Z,95990.88
2023-04-14T05:38:45.895Z,95988.84
2023-04-14T05:41:14.076Z,95981.55
2023-04-14T05:43:42.163Z,95978.66
2023-04-14T05:46:10.277Z,95975.48
2023-04-14T05:48:38.941Z,95975.17
2023-04-14T05:51:06.998Z,95969.20
2023-04-14T05:53:35.165Z,95957.54
2023-04-14T05:56:03.150Z,95955.69
2023-04-14T05:58:31.437Z,95960.90
2023-04-14T06:00:59.552Z,95966.30
2023-04-14T06:03:27.845Z,95968.38
2023-04-14T06:05:56.035Z,95966.73
2023-04-14T06:08:25.569Z,95963.30
2023-04-14T06:10:53.854Z,95963.51
2023-04-14T06:13:23.052Z,95952.17
2023-04-14T06:15:53.607Z,95947.20
2023-04-14T06:18:23.101Z,95943.11
2023-04-14T06:20:51.144Z,95941.09
2023-04-14T06:23:19.654Z,95928.39
2023-04-14T06:25:47.858Z,95927.91
2023-04-14T06:28:16.227Z,95926.02
2023-04-14T06:30:44.403Z,95922.54
2023-04-14T06:33:12.379Z,95916.73
2023-04-14T06:35:40.965Z,95917.40
2023-04-14T06:38:09.038Z,95920.20
2023-04-14T06:40:37.185Z,95926.61
2023-04-14T06:43:06.034Z,95925.91
2023-04-14T06:45:34.365Z,95928.30
2023-04-14T06:48:02.739Z,95926.66
2023-04-14T06:50:30.958Z,95924.20
2023-04-14T06:52:58.940Z,95919.17
2023-04-14T06:55:27.226Z,95914.73
2023-04-14T06:57:55.597Z,95908.52
2023-04-14T07:00:23.781Z,95910.79
2023-04-14T07:02:51.860Z,95917.52
2023-04-14T07:05:20.654Z,95921.84
2023-04-14T07:07:48.721Z,95923.99
2023-04-14T07:10:16.702Z,95922.11
2023-04-14T07:12:44.658Z,95919.61
2023-04-14T07:15:14.481Z,95919.44
2023-04-14T07:17:42.598Z,95917.00
2023-04-14T07:20:11.049Z,95914.21
2023-04-14T07:22:39.663Z,95915.58
2023-04-14T07:25:08.234Z,95911.05
2023-04-14T07:27:36.451Z,95904.13
2023-04-14T07:30:05.213Z,95903.23
2023-04-14T07:32:33.599Z,95899.06
2023-04-14T07:35:01.899Z,95890.02
2023-04-14T07:37:30.254Z,95886.52
2023-04-14T07:39:59.048Z,95886.52
2023-04-14T07:42:27.721Z,95891.08
2023-04-14T07:44:56.106Z,95891.04
2023-04-14T07:47:24.427Z,95891.84
2023-04-14T07:49:54.627Z,95892.60
2023-04-14T07:52:23.200Z,95896.33
2023-04-14T07:54:51.276Z,95895.56
2023-04-14T07:57:19.249Z,95888.27
2023-04-14T07:59:47.338Z,95883.86
2023-04-14T08:02:15.603Z,95883.63
2023-04-14T08:04:44.712Z,95877.88
2023-04-14T08:07:12.698Z,95870.16
2023-04-14T08:09:40.867Z,95872.29
2023-04-14T08:12:09.052Z,95868.50
2023-04-14T08:14:37.219Z,95863.24
2023-04-14T08:17:05.700Z,95856.88
2023-04-14T08:19:34.098Z,95854.55
2023-04-14T08:22:02.086Z,95857.92
2023-04-14T08:24:30.037Z,95859.12
2023-04-14T08:26:58.417Z,95858.68
2023-04-14T08:29:26.608Z,95848.90
2023-04-14T08:31:54.703Z,95845.69
2023-04-14T08:34:28.405Z,95842.55
2023-04-14T08:36:57.272Z,95842.52
2023-04-14T08:39:25.579Z,95838.23
2023-04-14T08:41:54.057Z,95832.73
2023-04-14T08:44:23.081Z,95826.80
2023-04-14T08:46:54.796Z,95829.89
2023-04-14T08:49:33.446Z,95827.65
2023-04-14T08:52:03.340Z,95825.89
2023-04-14T08:54:31.525Z,95820.65
2023-04-14T08:57:00.309Z,95812.81
2023-04-14T08:59:28.810Z,95808.23
2023-04-14T09:01:57.903Z,95799.76
2023-04-14T09:04:27.613Z,95804.66
2023-04-14T09:06:56.812Z,95805.67
2023-04-14T09:09:25.193Z,95808.02
2023-04-14T09:11:53.476Z,95806.04
2023-04-14T09:14:21.964Z,95804.20
2023-04-14T09:16:53.960Z,95805.00
2023-04-14T09:19:22.513Z,95802.98
2023-04-14T09:21:54.442Z,95794.60
2023-04-14T09:24:31.757Z,95788.27
2023-04-14T09:27:05.521Z,95785.54
2023-04-14T09:29:33.976Z,95786.58
2023-04-14T09:32:02.340Z,95788.69
2023-04-14T09:34:30.472Z,95793.55
2023-04-14T09:37:03.712Z,95777.16
2023-04-14T09:39:32.509Z,95774.92
2023-04-14T09:42:01.918Z,95768.75
2023-04-14T09:44:30.700Z,95763.41
2023-04-14T09:46:58.683Z,95765.97
2023-04-14T09:49:27.911Z,95764.21
2023-04-14T09:52:01.685Z,95762.16
2023-04-14T09:54:30.398Z,95751.73
2023-04-14T09:56:58.862Z,95746.36
2023-04-14T09:59:34.252Z,95748.75
2023-04-14T10:02:07.583Z,95746.98
2023-04-14T10:04:36.844Z,95744.60
2023-04-14T10:07:08.083Z,95746.66
2023-04-14T10:09:37.912Z,95745.17
2023-04-14T10:12:10.375Z,95744.14
2023-04-14T10:14:39.651Z,95747.66
2023-04-14T10:17:08.151Z,95747.98
2023-04-14T10:19:37.905Z,95747.98
2023-04-14T10:22:06.665Z,95752.44
2023-04-14T10:24:35.129Z,95758.42
2023-04-14T10:27:03.928Z,95758.04
2023-04-14T10:29:32.303Z,95771.73
2023-04-14T10:32:03.821Z,95779.36
2023-04-14T10:34:33.474Z,95785.47
2023-04-14T10:37:14.544Z,95784.12
2023-04-14T10:39:45.590Z,95788.59
2023-04-14T10:42:13.772Z,95783.67
2023-04-14T10:44:42.047Z,95778.95
2023-04-14T10:47:10.252Z,95765.20
2023-04-14T10:49:39.033Z,95757.73
2023-04-14T10:52:27.661Z,95767.38
2023-04-14T10:55:00.986Z,95769.96
2023-04-14T10:57:29.838Z,95780.03
2023-04-14T10:59:59.222Z,95778.66
2023-04-14T11:02:34.552Z,95769.88
2023-04-14T11:05:11.808Z,95775.88
2023-04-14T11:07:50.438Z,95777.16
2023-04-14T11:10:24.548Z,95769.95
2023-04-14T11:12:57.624Z,95755.33
2023-04-14T11:15:42.948Z,95760.13
2023-04-14T11:18:13.795Z,95768.55
2023-04-14T11:20:42.925Z,95765.04
2023-04-14T11:23:12.848Z,95763.80
2023-04-14T11:25:41.547Z,95767.64
2023-04-14T11:28:10.323Z,95771.68
2023-04-14T11:30:40.647Z,95759.02
2023-04-14T11:33:08.741Z,95766.07
2023-04-14T11:35:36.924Z,95764.64
2023-04-14T11:38:09.589Z,95763.88
2023-04-14T11:40:37.870Z,95762.25
2023-04-14T11:43:06.560Z,95766.44
2023-04-14T11:45:35.044Z,95757.37
2023-04-14T11:48:07.219Z,95755.61
2023-04-14T11:50:39.337Z,95754.73
2023-04-14T11:53:14.959Z,95752.41
2023-04-14T11:55:44.860Z,95748.23
2023-04-14T11:58:13.543Z,95748.16
2023-04-14T12:00:42.230Z,95749.67
2023-04-14T12:03:10.477Z,95748.40
2023-04-14T12:05:38.832Z,95749.78
2023-04-14T12:08:08.916Z,95756.20
2023-04-14T12:10:43.650Z,95747.98
2023-04-14T12:13:12.144Z,95750.95
2023-04-14T12:15:41.714Z,95757.24
2023-04-14T12:18:11.746Z,95758.85
2023-04-14T12:20:45.367Z,95760.41
2023-04-14T12:23:13.694Z,95759.22
2023-04-14T12:25:41.833Z,95757.48
2023-04-14T12:28:10.108Z,95755.35
2023-04-14T12:30:38.190Z,95751.07
2023-04-14T12:33:11.578Z,95755.23
2023-04-14T12:35:40.901Z,95758.77
2023-04-14T12:38:15.051Z,95757.75
2023-04-14T12:40:46.209Z,95755.82
2023-04-14T12:43:14.645Z,95756.60
2023-04-14T12:45:47.521Z,95758.16
2023-04-14T12:48:17.031Z,95761.92
2023-04-14T12:50:45.306Z,95766.28
2023-04-14T12:53:23.205Z,95765.86
2023-04-14T12:56:10.622Z,95773.41
2023-04-14T12:58:42.607Z,95785.92
2023-04-14T13:01:11.683Z,95785.98
2023-04-14T13:03:51.819Z,95788.59
2023-04-14T13:06:21.573Z,95790.75
2023-04-14T13:08:50.563Z,95784.35
2023-04-14T13:11:19.519Z,95779.71
2023-04-14T13:13:47.930Z,95777.20
2023-04-14T13:16:17.737Z,95775.51
2023-04-14T13:18:47.788Z,95773.48
2023-04-14T13:21:16.890Z,95765.92
2023-04-14T13:23:45.168Z,95762.35
2023-04-14T13:26:13.239Z,95756.42
2023-04-14T13:28:41.517Z,95754.55
2023-04-14T13:31:10.403Z,95756.91
2023-04-14T13:33:38.584Z,95756.98
2023-04-14T13:36:07.071Z,95756.40
2023-04-14T13:38:35.258Z,95757.69
2023-04-14T13:41:03.421Z,95761.02
2023-04-14T13:43:33.144Z,95765.34
2023-04-14T13:46:01.388Z,95766.19
2023-04-14T13:48:31.345Z,95773.56
2023-04-14T13:51:02.595Z,95787.23
2023-04-14T13:53:31.384Z,95797.81
2023-04-14T13:55:59.376Z,95808.55
2023-04-14T13:58:27.641Z,95818.23
2023-04-14T14:00:56.445Z,95817.44
2023-04-14T14:03:25.446Z,95826.95
2023-04-14T14:05:53.910Z,95829.55
2023-04-14T14:08:22.103Z,95833.89
2023-04-14T14:10:50.585Z,95838.84
2023-04-14T14:13:20.742Z,95846.16
2023-04-14T14:15:49.081Z,95854.35
2023-04-14T14:18:17.774Z,95855.04
2023-04-14T14:20:45.760Z,95864.23
2023-04-14T14:23:15.766Z,95866.52
2023-04-14T14:25:43.771Z,95880.90
2023-04-14T14:28:12.732Z,95884.05
2023-04-14T14:30:41.120Z,95891.34
2023-04-14T14:33:09.206Z,95901.70
2023-04-14T14:35:37.789Z,95910.06
2023-04-14T14:38:05.864Z,95916.42
2023-04-14T14:40:33.865Z,95924.48
2023-04-14T14:43:02.270Z,95933.29
2023-04-14T14:45:31.874Z,95939.67
2023-04-14T14:48:01.519Z,95938.50
2023-04-14T14:50:29.619Z,95947.35
2023-04-14T14:52:57.654Z,95961.29
2023-04-14T14:55:25.936Z,95961.86
2023-04-14T14:57:53.854Z,95972.09
2023-04-14T15:00:22.094Z,95993.57
2023-04-14T15:02:50.592Z,96004.23
2023-04-14T15:05:18.870Z,96015.93
2023-04-14T15:07:46.932Z,96014.61
2023-04-14T15:10:15.432Z,96024.20
2023-04-14T15:12:43.536Z,96018.73
2023-04-14T15:15:12.107Z,96011.95
2023-04-14T15:17:40.118Z,96014.21
2023-04-14T15:20:08.487Z,96005.23
2023-04-14T15:22:36.666Z,95990.31
2023-04-14T15:25:05.271Z,95975.73
2023-04-14T15:27:33.388Z,95960.05
2023-04-14T15:30:01.635Z,95954.68
2023-04-14T15:32:29.854Z,95938.97
2023-04-14T15:34:58.099Z,95937.37
2023-04-14T15:37:26.904Z,95930.39
2023-04-14T15:39:55.524Z,95929.27
2023-04-14T15:42:23.673Z,95932.06
2023-04-14T15:44:51.950Z,95938.20
2023-04-14T15:47:19.957Z,95933.00
2023-04-14T15:49:48.540Z,95938.77
2023-04-14T15:52:18.104Z,95939.58
2023-04-14T15:54:46.382Z,95929.83
2023-04-14T15:57:14.459Z,95923.02
2023-04-14T15:59:42.429Z,95917.73
2023-04-14T16:02:10.369Z,95920.00
2023-04-14T16:04:38.661Z,95916.84
2023-04-14T16:07:07.081Z,95924.45
2023-04-14T16:09:35.556Z,95929.08
2023-04-14T16:12:03.633Z,95941.06
2023-04-14T16:14:32.643Z,95947.45
2023-04-14T16:17:00.707Z,95964.03
2023-04-14T16:19:28.695Z,95965.12
2023-04-14T16:21:57.169Z,95964.56
2023-04-14T16:24:25.251Z,95973.30
2023-04-14T16:26:53.226Z,95972.52
2023-04-14T16:29:21.507Z,95970.08
2023-04-14T16:31:49.671Z,95969.34
2023-04-14T16:34:20.491Z,95962.20
2023-04-14T16:36:48.506Z,95963.34
2023-04-14T16:39:16.887Z,95962.13
2023-04-14T16:41:45.991Z,95969.04
2023-04-14T16:44:14.171Z,95964.83
2023-04-14T16:46:42.375Z,95977.73
2023-04-14T16:49:11.144Z,95983.80
2023-04-14T16:51:39.417Z,95995.54
2023-04-14T16:54:07.497Z,95994.98
2023-04-14T16:56:36.932Z,95988.27
2023-04-14T16:59:07.316Z,95988.48
2023-04-14T17:01:35.743Z,95987.77
2023-04-14T17:04:04.759Z,95983.24
2023-04-14T17:06:33.170Z,95980.48
2023-04-14T17:09:01.660Z,95974.58
2023-04-14T17:11:30.039Z,95971.15
2023-04-14T17:13:58.012Z,95973.57
2023-04-14T17:16:26.206Z,95982.77
2023-04-14T17:18:54.572Z,95990.06
2023-04-14T17:21:23.468Z,95989.73
2023-04-14T17:23:51.850Z,95996.30
2023-04-14T17:26:20.133Z,96007.27
2023-04-14T17:28:48.413Z,96023.55
2023-04-14T17:31:16.848Z,96018.36
2023-04-14T17:33:45.494Z,96013.77
2023-04-14T17:36:15.380Z,96018.12
2023-04-14T17:38:43.893Z,96021.29
2023-04-14T17:41:12.903Z,96030.20
2023-04-14T17:43:41.901Z,96038.25
2023-04-14T17:46:10.754Z,96045.94
2023-04-14T17:48:39.267Z,96055.09
2023-04-14T17:51:07.552Z,96059.09
2023-04-14T17:53:36.251Z,96064.11
2023-04-14T17:56:04.727Z,96067.88
2023-04-14T17:58:32.809Z,96073.89
2023-04-14T18:01:01.011Z,96073.37
2023-04-14T18:03:29.412Z,96068.46
2023-04-14T18:05:57.750Z,96070.52
2023-04-14T18:08:26.136Z,96081.42
2023-04-14T18:10:54.414Z,96079.61
2023-04-14T18:13:22.688Z,96076.86
2023-04-14T18:15:50.796Z,96072.75
2023-04-14T18:18:18.912Z,96065.31
2023-04-14T18:20:50.607Z,96066.39
2023-04-14T18:23:19.293Z,96066.76
2023-04-14T18:28:18.422Z,96091.88
2023-04-14T18:30:52.402Z,96090.98
2023-04-14T18:33:20.704Z,96096.21
2023-04-14T18:35:52.881Z,96100.52
2023-04-14T18:38:21.325Z,96102.74
2023-04-14T18:40:49.537Z,96093.73
2023-04-14T18:43:17.929Z,96085.23
2023-04-14T18:45:49.540Z,96080.19
2023-04-14T18:48:17.863Z,96090.55
2023-04-14T18:50:46.046Z,96099.00
2023-04-14T18:53:14.853Z,96106.96
2023-04-14T18:55:45.734Z,96113.86
2023-04-14T18:58:14.384Z,96125.60
2023-04-14T19:00:45.245Z,96131.27
2023-04-14T19:03:13.622Z,96122.23
2023-04-14T19:05:42.382Z,96120.67
2023-04-14T19:08:10.809Z,96107.23
2023-04-14T19:10:39.930Z,96096.55
2023-04-14T19:13:08.045Z,96085.67
2023-04-14T19:15:36.838Z,96092.80
2023-04-14T19:18:05.168Z,96111.66
2023-04-14T19:20:33.906Z,96119.21
2023-04-14T19:23:01.886Z,96122.52
2023-04-14T19:25:30.933Z,96132.11
2023-04-14T19:28:01.418Z,96137.48
2023-04-14T19:30:29.493Z,96136.80
2023-04-14T19:32:57.937Z,96141.84
2023-04-14T19:35:26.059Z,96148.92
2023-04-14T19:37:56.797Z,96139.92
2023-04-14T19:40:25.421Z,96148.82
2023-04-14T19:42:55.431Z,96149.65
2023-04-14T19:45:23.477Z,96147.78
2023-04-14T19:47:51.960Z,96145.83
2023-04-14T19:50:20.443Z,96148.65
2023-04-14T19:52:51.486Z,96146.73
2023-04-14T19:55:19.919Z,96145.59
2023-04-14T19:57:48.468Z,96149.23
2023-04-14T20:00:17.091Z,96150.14
2023-04-14T20:02:45.284Z,96151.09
2023-04-14T20:05:16.378Z,96153.02
2023-04-14T20:07:44.354Z,96148.55
2023-04-14T20:10:12.270Z,96154.45
2023-04-14T20:12:40.610Z,96153.25
2023-04-14T20:15:09.038Z,96158.21
2023-04-14T20:17:37.314Z,96160.77
2023-04-14T20:20:06.032Z,96165.75
2023-04-14T20:22:34.269Z,96175.27
2023-04-14T20:25:02.325Z,96177.77
2023-04-14T20:27:30.399Z,96171.15
2023-04-14T20:29:58.471Z,96176.31
2023-04-14T20:32:26.783Z,96180.05
2023-04-14T20:34:55.135Z,96183.20
2023-04-14T20:37:23.635Z,96179.00
2023-04-14T20:39:53.354Z,96178.48
2023-04-14T20:42:21.414Z,96180.31
2023-04-14T20:44:49.505Z,96177.00
2023-04-14T20:47:17.783Z,96178.90
2023-04-14T20:49:45.957Z,96187.86
2023-04-14T20:52:14.852Z,96196.25
2023-04-14T20:54:42.937Z,96199.62
2023-04-14T20:57:11.000Z,96203.13
2023-04-14T20:59:39.424Z,96202.45
2023-04-14T21:02:08.405Z,96201.86
2023-04-14T21:04:36.765Z,96206.25
2023-04-14T21:07:04.944Z,96206.98
2023-04-14T21:09:33.032Z,96203.34
2023-04-14T21:12:14.467Z,96203.30
2023-04-14T21:15:49.116Z,96205.35
2023-04-14T21:17:34.381Z,96205.52
2023-04-14T21:20:03.757Z,96212.36
2023-04-14T21:22:32.294Z,96215.89
2023-04-14T21:25:00.677Z,96223.34
2023-04-14T21:27:28.748Z,96223.20
2023-04-14T21:29:56.824Z,96220.12
2023-04-14T21:32:25.156Z,96217.96
2023-04-14T21:34:53.188Z,96214.67
2023-04-14T21:37:21.258Z,96213.42
2023-04-14T21:39:49.216Z,96217.09
2023-04-14T21:42:17.721Z,96216.21
2023-04-14T21:44:46.208Z,96225.54
2023-04-14T21:47:14.277Z,96232.40
2023-04-14T21:49:42.568Z,96235.14
2023-04-14T21:52:10.525Z,96237.77
2023-04-14T21:54:41.484Z,96238.27
2023-04-14T21:57:09.867Z,96241.93
2023-04-14T21:59:38.255Z,96247.77
2023-04-14T22:02:06.434Z,96251.70
2023-04-14T22:04:37.009Z,96249.37
2023-04-14T22:07:06.601Z,96255.05
2023-04-14T22:09:35.264Z,96253.99
2023-04-14T22:12:03.644Z,96252.11
2023-04-14T22:14:31.719Z,96253.78
2023-04-14T22:17:00.950Z,96261.40
2023-04-14T22:19:30.119Z,96263.48
2023-04-14T22:21:58.307Z,96270.02
2023-04-14T22:24:26.392Z,96270.10
2023-04-14T22:26:54.454Z,96269.27
2023-04-14T22:29:22.656Z,96267.29
2023-04-14T22:31:50.713Z,96265.19
2023-04-14T22:34:21.045Z,96268.40
2023-04-14T22:36:49.315Z,96268.36
2023-04-14T22:39:17.603Z,96264.20
2023-04-14T22:41:49.681Z,96259.98
2023-04-14T22:44:18.770Z,96256.80
2023-04-14T22:46:46.952Z,96258.48
2023-04-14T22:49:15.230Z,96256.27
2023-04-14T22:51:43.305Z,96256.13
2023-04-14T22:54:11.682Z,96261.27
2023-04-14T22:56:41.115Z,96259.01
2023-04-14T22:59:09.275Z,96260.38
2023-04-14T23:01:37.663Z,96261.48
2023-04-14T23:04:05.934Z,96253.13
2023-04-14T23:06:34.116Z,96247.17
2023-04-14T23:09:02.567Z,96245.23
2023-04-14T23:11:30.988Z,96244.77
2023-04-14T23:13:59.266Z,96242.77
2023-04-14T23:16:27.721Z,96237.96
2023-04-14T23:18:56.347Z,96225.96
2023-04-14T23:21:25.125Z,96222.73
2023-04-14T23:23:53.309Z,96220.61
2023-04-14T23:26:21.986Z,96223.65
2023-04-14T23:28:50.705Z,96224.86
2023-04-14T23:31:19.028Z,96221.08
2023-04-14T23:33:49.609Z,96211.95
2023-04-14T23:36:17.683Z,96218.43
2023-04-14T23:38:46.173Z,96223.16
2023-04-14T23:41:14.452Z,96224.52
2023-04-14T23:43:42.631Z,96230.11
2023-04-14T23:46:10.869Z,96229.08
2023-04-14T23:48:39.123Z,96228.05
2023-04-14T23:51:17.856Z,96230.23
2023-04-14T23:53:49.476Z,96234.77
2023-04-14T23:56:17.799Z,96233.07
2023-04-14T23:58:45.882Z,96227.93
